Time;durP1;ratioP1;P1;durP2;ratioP2;P2;SDS_P1;SDS_P2;PMS_P1;PMS_P2;Temp;Humidity;BMP_temperature;BMP_pressure;BME280_temperature;BME280_humidity;BME280_pressure;Samples;Min_cycle;Max_cycle;Signal;HPM_P1;HPM_P2
2021/07/31 00:01:06;;;;;;;;;;;;;;;21.25;62.14;100384.13;5047842;28;19917;-88
2021/07/31 00:03:31;;;;;;;;;;;;;;;21.95;59.54;100381.63;5046368;28;20373;-89
2021/07/31 00:05:57;;;;;;;;;;;;;;;22.05;59.20;100383.44;5046611;28;20354;-88
2021/07/31 00:08:22;;;;;;;;;;;;;;;21.86;59.66;100385.34;5046815;28;19952;-88
2021/07/31 00:10:47;;;;;;;;;;;;;;;21.51;60.58;100384.28;5048119;28;19928;-87
2021/07/31 00:13:13;;;;;;;;;;;;;;;21.69;58.93;100380.69;5064641;28;20322;-87
2021/07/31 00:15:38;;;;;;;;;;;;;;;22.15;58.06;100375.06;5047490;28;19917;-87
2021/07/31 00:18:03;;;;;;;;;;;;;;;20.79;62.34;100388.69;5046882;28;19996;-88
2021/07/31 00:20:28;;;;;;;;;;;;;;;21.26;60.29;100377.63;5047847;28;19916;-87
2021/07/31 00:22:54;;;;;;;;;;;;;;;20.36;62.74;100385.47;5045998;28;20331;-87
2021/07/31 00:25:19;;;;;;;;;;;;;;;20.84;61.60;100379.00;5046953;28;19924;-87
2021/07/31 00:27:44;;;;;;;;;;;;;;;21.80;58.78;100374.97;5047065;28;20019;-88
2021/07/31 00:30:10;;;;;;;;;;;;;;;21.56;59.50;100379.19;5046476;28;19916;-87
2021/07/31 00:32:35;;;;;;;;;;;;;;;;;;5046415;28;19964;-87
2021/07/31 00:35:00;;;;;;;;;;;;;;;21.27;59.43;100367.47;5046920;28;19913;-88
2021/07/31 00:37:26;;;;;;;;;;;;;;;22.29;57.52;100374.50;5064235;28;19959;-87
2021/07/31 00:39:51;;;;;;;;;;;;;;;21.91;58.04;100371.09;5047049;28;19928;-87
2021/07/31 00:42:17;;;;;;;;;;;;;;;22.36;56.36;100375.63;5046521;28;19920;-88
2021/07/31 00:44:42;;;;;;;;;;;;;;;22.21;57.38;100389.06;5045580;28;19916;-88
2021/07/31 00:47:07;;;;;;;;;;;;;;;22.43;57.38;100384.09;5062302;28;19917;-88
2021/07/31 00:49:34;;;;;;;;;;;;;;;22.01;58.88;100388.41;5045901;28;20026;-90
2021/07/31 00:52:00;;;;;;;;;;;;;;;22.09;59.10;100388.47;5047358;28;19988;-88
2021/07/31 00:54:26;;;;;;;;;;;;;;;21.41;60.93;100398.09;5046691;28;19971;-89
2021/07/31 00:56:52;;;;;;;;;;;;;;;22.06;59.32;100390.69;5049506;28;19920;-90
2021/07/31 00:59:18;;;;;;;;;;;;;;;21.00;62.26;100391.22;5049425;28;19917;-89
2021/07/31 01:01:43;;;;;;;;;;;;;;;21.31;59.76;100396.41;5048295;28;19917;-89
2021/07/31 01:04:08;;;;;;;;;;;;;;;22.51;56.95;100386.03;5046800;28;19984;-90
2021/07/31 01:06:38;;;;;;;;;;;;;;;20.53;62.02;100389.34;5045876;28;20435;-89
2021/07/31 01:09:04;;;;;;;;;;;;;;;21.38;59.25;100381.88;5046177;28;19927;-87
2021/07/31 01:11:29;;;;;;;;;;;;;;;20.65;60.99;100387.28;5045557;28;19920;-88
2021/07/31 01:13:55;;;;;;;;;;;;;;;20.75;60.83;100390.03;5045867;28;19925;-87
2021/07/31 01:16:20;;;;;;;;;;;;;;;20.96;60.81;100384.31;5063653;28;19901;-88
2021/07/31 01:18:45;;;;;;;;;;;;;;;20.77;61.22;100385.25;5045090;28;19917;-90
2021/07/31 01:21:31;;;;;;;;;;;;;;;22.08;57.71;100377.59;5045539;28;19924;-91
2021/07/31 01:23:57;;;;;;;;;;;;;;;21.32;59.67;100384.41;5045967;28;19916;-90
2021/07/31 01:26:22;;;;;;;;;;;;;;;21.42;59.68;100383.31;5044760;28;19924;-89
2021/07/31 01:28:48;;;;;;;;;;;;;;;21.36;60.60;100389.44;5044875;28;19927;-90
2021/07/31 01:31:13;;;;;;;;;;;;;;;21.53;60.67;100395.13;5045400;28;19917;-90
2021/07/31 01:33:38;;;;;;;;;;;;;;;22.12;59.40;100395.56;5045153;28;19917;-91
2021/07/31 01:36:06;;;;;;;;;;;;;;;21.36;60.91;100394.94;5047224;28;19923;-89
2021/07/31 01:38:31;;;;;;;;;;;;;;;20.83;62.55;100388.25;5046419;28;19919;-90
2021/07/31 01:40:56;;;;;;;;;;;;;;;21.38;61.14;100392.91;5047174;28;19920;-89
2021/07/31 01:43:21;;;;;;;;;;;;;;;21.00;62.43;100394.84;5046748;28;19928;-88
2021/07/31 01:45:47;;;;;;;;;;;;;;;21.09;63.08;100398.56;5047195;28;19924;-89
2021/07/31 01:48:12;;;;;;;;;;;;;;;21.09;62.70;100393.06;5046948;28;19924;-88
2021/07/31 01:50:40;;;;;;;;;;;;;;;20.98;63.61;100390.50;5045858;28;19916;-90
2021/07/31 01:53:07;;;;;;;;;;;;;;;21.05;63.65;100392.50;5045102;28;19952;-89
2021/07/31 01:55:32;;;;;;;;;;;;;;;21.31;62.77;100390.91;5045852;28;19985;-90
2021/07/31 01:57:57;;;;;;;;;;;;;;;21.03;63.66;100399.16;5044820;28;20365;-89
2021/07/31 02:00:22;;;;;;;;;;;;;;;21.34;62.50;100391.47;5046528;28;19917;-89
2021/07/31 02:02:48;;;;;;;;;;;;;;;21.68;61.08;100390.84;5046830;28;19921;-90
2021/07/31 02:05:13;;;;;;;;;;;;;;;21.25;63.58;100396.00;5045383;28;20011;-91
2021/07/31 02:07:38;;;;;;;;;;;;;;;21.06;63.77;100412.59;5046619;28;20289;-89
2021/07/31 02:10:04;;;;;;;;;;;;;;;21.36;62.19;100405.97;5063492;28;19963;-90
2021/07/31 02:12:29;;;;;;;;;;;;;;;21.59;61.38;100406.41;5045466;28;19928;-90
2021/07/31 02:14:54;;;;;;;;;;;;;;;21.99;60.15;100400.59;5044919;28;19921;-90
2021/07/31 02:17:20;;;;;;;;;;;;;;;22.01;59.70;100404.03;5045851;28;19917;-90
2021/07/31 02:19:45;;;;;;;;;;;;;;;21.83;60.38;100413.19;5045217;28;19956;-90
2021/07/31 02:22:10;;;;;;;;;;;;;;;22.28;59.31;100405.81;5045376;28;19917;-89
2021/07/31 02:24:35;;;;;;;;;;;;;;;21.23;61.21;100408.19;5045171;28;19939;-89
2021/07/31 02:27:01;;;;;;;;;;;;;;;21.59;60.23;100408.31;5044826;28;19916;-90
2021/07/31 02:29:26;;;;;;;;;;;;;;;21.94;59.39;100407.44;5045097;28;19924;-89
2021/07/31 02:31:51;;;;;;;;;;;;;;;21.72;60.47;100413.41;5045013;28;19917;-89
2021/07/31 02:34:16;;;;;;;;;;;;;;;21.19;62.41;100421.38;5044683;28;19948;-90
2021/07/31 02:36:42;;;;;;;;;;;;;;;21.21;62.21;100411.09;5044373;28;20416;-88
2021/07/31 02:39:07;;;;;;;;;;;;;;;20.99;63.04;100419.75;5045080;28;19975;-89
2021/07/31 02:41:32;;;;;;;;;;;;;;;21.39;61.26;100424.03;5062898;28;19921;-88
2021/07/31 02:43:57;;;;;;;;;;;;;;;21.20;61.92;100417.63;5045024;28;19927;-87
2021/07/31 02:46:23;;;;;;;;;;;;;;;21.46;60.33;100414.13;5044968;28;19967;-89
2021/07/31 02:48:48;;;;;;;;;;;;;;;21.67;60.01;100426.78;5046034;28;19943;-88
2021/07/31 02:51:14;;;;;;;;;;;;;;;21.73;59.89;100428.91;5045573;28;19921;-88
2021/07/31 02:53:39;;;;;;;;;;;;;;;21.29;60.78;100429.59;5045690;28;19972;-88
2021/07/31 02:56:05;;;;;;;;;;;;;;;21.73;59.73;100427.03;5045065;28;19920;-89
2021/07/31 02:58:30;;;;;;;;;;;;;;;21.50;60.10;100428.47;5045038;28;19917;-89
2021/07/31 03:00:56;;;;;;;;;;;;;;;21.81;58.39;100420.72;5043997;28;19923;-89
2021/07/31 03:03:21;;;;;;;;;;;;;;;21.68;58.58;100423.00;5043994;28;20285;-89
2021/07/31 03:05:56;;;;;;;;;;;;;;;21.00;60.55;100426.97;5043666;28;20293;-89
2021/07/31 03:08:21;;;;;;;;;;;;;;;21.24;59.74;100424.56;5044012;28;19926;-89
2021/07/31 03:10:51;;;;;;;;;;;;;;;21.61;57.99;100427.41;5046381;28;19921;-89
2021/07/31 03:13:16;;;;;;;;;;;;;;;21.91;57.68;100426.19;5047709;28;19932;-90
2021/07/31 03:15:42;;;;;;;;;;;;;;;21.80;57.93;100427.28;5048997;28;19917;-90
2021/07/31 03:18:07;;;;;;;;;;;;;;;21.74;58.42;100417.75;5049014;28;19923;-90
2021/07/31 03:20:32;;;;;;;;;;;;;;;21.43;59.07;100425.44;5047621;28;19921;-90
2021/07/31 03:22:57;;;;;;;;;;;;;;;21.68;58.71;100431.25;5047247;28;19917;-89
2021/07/31 03:25:23;;;;;;;;;;;;;;;21.86;58.41;100434.91;5048456;28;19967;-90
2021/07/31 03:27:48;;;;;;;;;;;;;;;21.74;59.23;100425.13;5048184;28;19917;-90
2021/07/31 03:30:13;;;;;;;;;;;;;;;21.17;60.38;100434.44;5049220;28;19923;-89
2021/07/31 03:32:38;;;;;;;;;;;;;;;21.51;58.78;100439.31;5047985;28;19917;-87
2021/07/31 03:35:04;;;;;;;;;;;;;;;21.20;58.21;100444.28;5048052;28;19988;-87
2021/07/31 03:37:29;;;;;;;;;;;;;;;21.55;57.40;100446.25;5047708;28;19944;-87
2021/07/31 03:39:54;;;;;;;;;;;;;;;21.55;58.09;100449.00;5048108;28;19955;-88
2021/07/31 03:42:19;;;;;;;;;;;;;;;21.37;57.34;100445.34;5047674;28;19921;-87
2021/07/31 03:44:45;;;;;;;;;;;;;;;21.73;56.65;100448.19;5046774;28;19917;-88
2021/07/31 03:47:10;;;;;;;;;;;;;;;20.81;59.52;100444.41;5047745;28;19916;-88
2021/07/31 03:49:35;;;;;;;;;;;;;;;20.60;59.93;100447.34;5046754;28;20219;-87
2021/07/31 03:52:00;;;;;;;;;;;;;;;20.64;59.08;100455.13;5047635;28;19917;-88
2021/07/31 03:54:25;;;;;;;;;;;;;;;21.40;56.65;100450.53;5046892;28;19916;-89
2021/07/31 03:56:51;;;;;;;;;;;;;;;21.40;56.78;100450.53;5046912;28;19924;-88
2021/07/31 03:59:16;;;;;;;;;;;;;;;21.59;56.79;100460.59;5046500;28;19917;-89
2021/07/31 04:01:41;;;;;;;;;;;;;;;21.14;57.58;100462.25;5047271;28;19917;-88
2021/07/31 04:04:06;;;;;;;;;;;;;;;21.06;57.95;100464.84;5047648;28;19916;-89
2021/07/31 04:06:32;;;;;;;;;;;;;;;21.09;58.32;100472.84;5046359;28;19917;-89
2021/07/31 04:08:57;;;;;;;;;;;;;;;21.00;57.94;100476.47;5046827;28;19917;-89
2021/07/31 04:11:22;;;;;;;;;;;;;;;21.37;57.50;100472.84;5047138;28;19928;-89
2021/07/31 04:13:48;;;;;;;;;;;;;;;21.37;57.05;100478.34;5046760;28;19931;-89
2021/07/31 04:16:13;;;;;;;;;;;;;;;21.14;57.58;100472.38;5046915;28;19917;-89
2021/07/31 04:18:38;;;;;;;;;;;;;;;21.14;57.22;100489.75;5047367;28;19917;-88
2021/07/31 04:21:04;;;;;;;;;;;;;;;20.84;58.14;100482.63;5046341;28;20419;-88
2021/07/31 04:23:30;;;;;;;;;;;;;;;21.07;57.11;100477.59;5046457;28;19917;-89
2021/07/31 04:25:55;;;;;;;;;;;;;;;20.97;57.72;100482.28;5047051;28;19924;-87
2021/07/31 04:28:20;;;;;;;;;;;;;;;21.92;54.81;100488.47;5046716;28;20378;-87
2021/07/31 04:30:46;;;;;;;;;;;;;;;21.32;56.37;100486.22;5047363;28;19916;-89
2021/07/31 04:33:11;;;;;;;;;;;;;;;21.29;57.20;100495.63;5046307;28;19917;-89
2021/07/31 04:35:36;;;;;;;;;;;;;;;21.37;56.72;100492.13;5064201;28;19920;-88
2021/07/31 04:38:02;;;;;;;;;;;;;;;21.64;56.64;100485.78;5045998;28;20370;-89
2021/07/31 04:40:27;;;;;;;;;;;;;;;21.18;58.08;100498.56;5062861;28;19921;-91
2021/07/31 04:42:53;;;;;;;;;;;;;;;20.99;58.86;100505.00;5045654;28;19984;-87
2021/07/31 04:45:18;;;;;;;;;;;;;;;21.67;57.47;100501.13;5044837;28;19920;-89
2021/07/31 04:47:43;;;;;;;;;;;;;;;21.45;58.14;100516.97;5045005;28;19917;-90
2021/07/31 04:50:10;;;;;;;;;;;;;;;21.93;56.74;100506.75;5045399;28;20000;-89
2021/07/31 04:52:35;;;;;;;;;;;;;;;21.87;56.89;100501.88;5046402;28;19927;-89
2021/07/31 04:55:01;;;;;;;;;;;;;;;22.57;55.15;100513.09;5039694;28;20375;-89
2021/07/31 04:57:27;;;;;;;;;;;;;;;21.76;57.70;100516.72;5039320;28;19967;-89
2021/07/31 04:59:52;;;;;;;;;;;;;;;22.15;56.63;100521.09;5039675;28;19916;-88
2021/07/31 05:02:17;;;;;;;;;;;;;;;21.74;57.92;100519.63;5039576;28;19970;-89
2021/07/31 05:04:42;;;;;;;;;;;;;;;21.12;59.19;100521.16;5039574;28;20281;-89
2021/07/31 05:07:08;;;;;;;;;;;;;;;21.60;58.25;100525.63;5039636;28;20352;-88
2021/07/31 05:09:33;;;;;;;;;;;;;;;21.50;57.67;100533.94;5039111;28;19987;-87
2021/07/31 05:11:58;;;;;;;;;;;;;;;21.36;58.57;100526.16;5038966;28;19931;-89
2021/07/31 05:14:24;;;;;;;;;;;;;;;21.61;57.81;100529.28;5039372;28;19960;-91
2021/07/31 05:16:49;;;;;;;;;;;;;;;21.40;57.96;100533.09;5038982;28;20007;-89
2021/07/31 05:19:15;;;;;;;;;;;;;;;21.56;57.15;100525.06;5039091;28;19948;-90
2021/07/31 05:21:40;;;;;;;;;;;;;;;21.93;56.59;100534.28;5039183;28;19957;-90
2021/07/31 05:24:05;;;;;;;;;;;;;;;20.99;60.10;100538.00;5038992;28;19916;-89
2021/07/31 05:26:30;;;;;;;;;;;;;;;21.57;58.41;100539.69;5038924;28;19916;-90
2021/07/31 05:28:57;;;;;;;;;;;;;;;20.86;60.59;100539.19;5039439;28;20000;-89
2021/07/31 05:31:22;;;;;;;;;;;;;;;21.35;59.53;100547.31;5038990;28;19916;-90
2021/07/31 05:33:48;;;;;;;;;;;;;;;20.91;59.95;100552.50;5038610;28;20305;-90
2021/07/31 05:36:13;;;;;;;;;;;;;;;21.74;57.54;100544.41;5039134;28;20293;-89
2021/07/31 05:38:38;;;;;;;;;;;;;;;21.57;57.26;100551.59;5039529;28;19924;-89
2021/07/31 05:41:04;;;;;;;;;;;;;;;21.41;58.02;100556.84;5038738;28;19924;-89
2021/07/31 05:43:29;;;;;;;;;;;;;;;21.22;58.63;100553.13;5038836;28;19947;-91
2021/07/31 05:45:54;;;;;;;;;;;;;;;21.93;56.48;100561.84;5039502;28;19947;-90
2021/07/31 05:48:19;;;;;;;;;;;;;;;21.23;57.98;100549.38;5056165;28;19917;-89
2021/07/31 05:50:44;;;;;;;;;;;;;;;22.05;56.02;100548.72;5039127;28;19925;-89
2021/07/31 05:53:10;;;;;;;;;;;;;;;21.66;57.37;100554.44;5039009;28;19924;-90
2021/07/31 05:55:36;;;;;;;;;;;;;;;22.76;53.53;100553.38;5038753;28;19917;-90
2021/07/31 05:58:01;;;;;;;;;;;;;;;22.55;54.57;100566.66;5038118;28;19924;-90
2021/07/31 06:00:27;;;;;;;;;;;;;;;22.38;54.15;100574.75;5038778;28;19921;-88
2021/07/31 06:02:52;;;;;;;;;;;;;;;21.78;56.57;100561.47;5039333;28;19940;-91
2021/07/31 06:05:17;;;;;;;;;;;;;;;21.49;57.61;100564.34;5038740;28;20374;-91
2021/07/31 06:07:42;;;;;;;;;;;;;;;21.65;56.73;100567.34;5038602;28;19964;-90
2021/07/31 06:10:08;;;;;;;;;;;;;;;22.01;55.63;100555.53;5038398;28;19920;-87
2021/07/31 06:12:33;;;;;;;;;;;;;;;22.19;55.52;100572.97;5039199;28;19932;-90
2021/07/31 06:14:58;;;;;;;;;;;;;;;21.91;56.87;100566.63;5038325;28;19963;-91
2021/07/31 06:17:24;;;;;;;;;;;;;;;22.10;57.27;100568.38;5038875;28;19920;-92
2021/07/31 06:19:49;;;;;;;;;;;;;;;22.06;56.96;100578.00;5038950;28;19917;-91
2021/07/31 06:22:14;;;;;;;;;;;;;;;22.28;55.89;100579.44;5038069;28;20015;-91
2021/07/31 06:24:39;;;;;;;;;;;;;;;22.91;54.53;100584.00;5038246;28;20075;-91
2021/07/31 06:27:05;;;;;;;;;;;;;;;21.69;56.89;100581.66;5038603;28;19916;-90
2021/07/31 06:29:30;;;;;;;;;;;;;;;21.92;57.57;100591.28;5037852;28;19917;-88
2021/07/31 06:31:55;;;;;;;;;;;;;;;22.35;55.99;100593.50;5038505;28;19966;-89
2021/07/31 06:34:20;;;;;;;;;;;;;;;22.05;56.00;100598.31;5038591;28;19921;-89
2021/07/31 06:36:46;;;;;;;;;;;;;;;21.54;57.25;100584.03;5037903;28;19917;-89
2021/07/31 06:39:11;;;;;;;;;;;;;;;22.04;57.08;100591.94;5038151;28;19917;-90
2021/07/31 06:41:36;;;;;;;;;;;;;;;21.92;56.31;100598.66;5038325;28;19921;-91
2021/07/31 06:44:02;;;;;;;;;;;;;;;22.06;56.58;100598.16;5056302;28;20488;-89
2021/07/31 06:46:28;;;;;;;;;;;;;;;21.79;57.89;100604.53;5040866;28;20007;-90
2021/07/31 06:48:54;;;;;;;;;;;;;;;21.91;58.01;100597.78;5042120;28;19959;-90
2021/07/31 06:51:20;;;;;;;;;;;;;;;21.75;59.69;100603.09;5041827;28;19920;-86
2021/07/31 06:53:46;;;;;;;;;;;;;;;21.84;59.18;100602.16;5041998;28;19959;-87
2021/07/31 06:56:12;;;;;;;;;;;;;;;21.79;60.62;100596.25;5024129;28;19975;-91
2021/07/31 06:58:38;;;;;;;;;;;;;;;21.74;60.07;100606.84;5007093;28;19921;-92
2021/07/31 07:01:07;;;;;;;;;;;;;;;21.41;62.60;100606.38;5002838;28;19918;-86
2021/07/31 07:03:32;;;;;;;;;;;;;;;20.88;63.72;100605.91;5003270;28;19937;-89
2021/07/31 07:06:01;;;;;;;;;;;;;;;20.82;64.33;100617.47;5001664;28;19924;-89
2021/07/31 07:08:27;;;;;;;;;;;;;;;21.01;62.94;100616.56;5020046;28;19913;-89
2021/07/31 07:10:52;;;;;;;;;;;;;;;21.66;61.95;100620.53;5001797;28;20363;-87
2021/07/31 07:13:17;;;;;;;;;;;;;;;21.90;61.04;100617.22;5003450;28;19925;-93
2021/07/31 07:15:42;;;;;;;;;;;;;;;22.15;61.03;100618.41;5004060;28;19918;-90
2021/07/31 07:18:08;;;;;;;;;;;;;;;20.86;63.50;100618.03;5015060;28;19924;-89
2021/07/31 07:20:33;;;;;;;;;;;;;;;21.84;61.64;100624.19;5060533;28;20003;-87
2021/07/31 07:23:01;;;;;;;;;;;;;;;21.41;63.26;100629.25;5063538;28;19966;-92
2021/07/31 07:25:27;;;;;;;;;;;;;;;21.27;63.52;100632.47;5043599;28;20396;-87
2021/07/31 07:27:52;;;;;;;;;;;;;;;22.15;61.91;100636.78;5060431;28;19917;-92
2021/07/31 07:30:20;;;;;;;;;;;;;;;22.26;60.44;100636.59;5043281;28;19924;-93
2021/07/31 07:32:46;;;;;;;;;;;;;;;22.23;61.06;100643.28;5042266;28;19940;-89
2021/07/31 07:35:11;;;;;;;;;;;;;;;22.52;60.36;100633.97;5041587;28;20358;-89
2021/07/31 07:37:36;;;;;;;;;;;;;;;22.15;61.24;100645.94;5041737;28;19924;-89
2021/07/31 07:40:02;;;;;;;;;;;;;;;22.40;60.90;100646.25;5041468;28;19928;-86
2021/07/31 07:42:27;;;;;;;;;;;;;;;21.69;63.06;100647.75;5040529;28;19928;-87
2021/07/31 07:44:53;;;;;;;;;;;;;;;21.45;64.24;100651.84;5058255;28;19949;-89
2021/07/31 07:47:21;;;;;;;;;;;;;;;21.41;63.40;100661.44;5041155;28;20381;-90
2021/07/31 07:49:46;;;;;;;;;;;;;;;21.94;63.05;100654.47;5039868;28;19917;-86
2021/07/31 07:52:11;;;;;;;;;;;;;;;21.04;64.92;100664.94;5039100;28;20362;-85
2021/07/31 07:54:37;;;;;;;;;;;;;;;21.61;64.05;100672.41;5038578;28;19923;-85
2021/07/31 07:57:05;;;;;;;;;;;;;;;22.33;61.93;100676.34;5039265;28;19923;-88
2021/07/31 07:59:31;;;;;;;;;;;;;;;22.63;60.77;100677.88;5040168;28;19923;-87
2021/07/31 08:01:56;;;;;;;;;;;;;;;22.78;60.78;100671.81;5039747;28;19956;-88
2021/07/31 08:04:21;;;;;;;;;;;;;;;23.12;60.24;100676.66;5038955;28;20315;-88
2021/07/31 08:06:47;;;;;;;;;;;;;;;22.18;62.52;100675.94;5038431;28;20016;-87
2021/07/31 08:09:12;;;;;;;;;;;;;;;22.42;62.05;100682.78;5038385;28;19917;-86
2021/07/31 08:11:42;;;;;;;;;;;;;;;22.52;61.35;100683.59;5038526;28;19921;-86
2021/07/31 08:14:08;;;;;;;;;;;;;;;23.10;60.74;100681.44;5038992;28;19967;-87
2021/07/31 08:16:33;;;;;;;;;;;;;;;22.79;61.08;100690.97;5039067;28;19917;-86
2021/07/31 08:18:59;;;;;;;;;;;;;;;22.89;61.03;100685.38;5038996;28;19923;-88
2021/07/31 08:21:24;;;;;;;;;;;;;;;23.62;58.26;100681.53;5038695;28;19923;-86
2021/07/31 08:23:49;;;;;;;;;;;;;;;23.12;60.13;100682.19;5038900;28;20285;-85
2021/07/31 08:26:15;;;;;;;;;;;;;;;23.50;59.02;100682.81;5038182;28;19920;-84
2021/07/31 08:28:41;;;;;;;;;;;;;;;23.95;58.58;100686.41;5037681;28;19946;-83
2021/07/31 08:31:07;;;;;;;;;;;;;;;24.57;56.85;100684.25;5038703;28;19958;-87
2021/07/31 08:33:34;;;;;;;;;;;;;;;24.31;57.44;100687.09;5038858;28;19917;-87
2021/07/31 08:35:59;;;;;;;;;;;;;;;23.01;60.68;100689.63;5038569;28;19916;-86
2021/07/31 08:38:25;;;;;;;;;;;;;;;23.23;59.46;100690.19;5038384;28;19928;-87
2021/07/31 08:40:50;;;;;;;;;;;;;;;22.46;60.46;100698.00;5038485;28;19995;-86
2021/07/31 08:43:16;;;;;;;;;;;;;;;22.09;62.45;100699.78;5056715;28;19920;-84
2021/07/31 08:45:41;;;;;;;;;;;;;;;22.96;60.70;100703.06;5055721;28;19921;-85
2021/07/31 08:48:07;;;;;;;;;;;;;;;22.82;61.27;100711.84;5038536;28;19983;-87
2021/07/31 08:50:32;;;;;;;;;;;;;;;22.48;62.40;100710.63;5038280;28;19917;-87
2021/07/31 08:53:00;;;;;;;;;;;;;;;23.08;61.14;100722.13;5038036;28;19924;-88
2021/07/31 08:55:25;;;;;;;;;;;;;;;23.48;59.80;100720.78;5038057;28;19921;-86
2021/07/31 08:57:51;;;;;;;;;;;;;;;22.87;61.22;100734.31;5038757;28;19932;-87
2021/07/31 09:00:16;;;;;;;;;;;;;;;22.30;62.32;100727.09;5038966;28;20336;-89
2021/07/31 09:02:42;;;;;;;;;;;;;;;21.78;63.87;100729.44;5039069;28;19932;-87
2021/07/31 09:05:08;;;;;;;;;;;;;;;21.80;63.49;100737.56;5038504;28;19928;-86
2021/07/31 09:07:34;;;;;;;;;;;;;;;22.27;61.86;100741.16;5037004;28;19952;-86
2021/07/31 09:10:22;;;;;;;;;;;;;;;22.70;60.75;100741.53;5039027;28;19971;-87
2021/07/31 09:12:57;;;;;;;;;;;;;;;23.46;59.68;100740.28;5038832;28;19931;-88
2021/07/31 09:15:29;;;;;;;;;;;;;;;22.62;61.33;100742.31;5037624;28;19917;-85
2021/07/31 09:17:54;;;;;;;;;;;;;;;22.32;62.76;100748.16;5037060;28;19917;-84
2021/07/31 09:20:20;;;;;;;;;;;;;;;22.06;62.99;100751.56;5037253;28;19916;-83
2021/07/31 09:22:50;;;;;;;;;;;;;;;22.54;61.82;100752.38;5055316;28;19956;-85
2021/07/31 09:25:16;;;;;;;;;;;;;;;22.63;62.60;100752.34;5037320;28;20630;-86
2021/07/31 09:27:42;;;;;;;;;;;;;;;22.22;63.20;100765.56;5036838;28;19955;-84
2021/07/31 09:30:09;;;;;;;;;;;;;;;22.34;62.16;100770.91;5036535;28;19916;-86
2021/07/31 09:32:39;;;;;;;;;;;;;;;21.46;64.79;100763.66;5037606;28;19923;-86
2021/07/31 09:35:17;;;;;;;;;;;;;;;21.30;64.75;100774.38;5037914;28;19920;-86
2021/07/31 09:37:47;;;;;;;;;;;;;;;20.92;64.64;100776.09;5038029;28;19916;-85
2021/07/31 09:40:13;;;;;;;;;;;;;;;20.92;65.47;100781.59;5037370;28;19921;-84
2021/07/31 09:42:39;;;;;;;;;;;;;;;21.35;63.71;100777.59;5036920;28;19928;-86
2021/07/31 09:45:12;;;;;;;;;;;;;;;22.20;61.64;100775.84;5036853;28;19927;-86
2021/07/31 09:47:39;;;;;;;;;;;;;;;22.41;61.06;100774.81;5054058;28;19939;-84
2021/07/31 09:50:04;;;;;;;;;;;;;;;23.01;60.30;100777.94;5036063;28;19956;-84
2021/07/31 09:52:30;;;;;;;;;;;;;;;22.96;61.01;100780.31;5036646;28;19917;-84
2021/07/31 09:54:58;;;;;;;;;;;;;;;23.27;60.09;100787.38;5036166;28;20106;-85
2021/07/31 09:57:25;;;;;;;;;;;;;;;23.85;58.52;100786.88;5036617;28;19917;-85
2021/07/31 09:59:50;;;;;;;;;;;;;;;23.71;58.04;100790.16;5038115;28;19916;-89
2021/07/31 10:02:19;;;;;;;;;;;;;;;22.48;60.92;100801.59;4998199;28;20382;-88
2021/07/31 10:04:45;;;;;;;;;;;;;;;23.18;59.42;100794.69;5010624;28;19917;-89
2021/07/31 10:07:11;;;;;;;;;;;;;;;23.27;59.26;100802.03;5016915;28;19952;-90
2021/07/31 10:09:38;;;;;;;;;;;;;;;23.06;60.27;100806.94;5017091;28;19917;-87
2021/07/31 10:12:05;;;;;;;;;;;;;;;23.28;60.32;100805.66;5034626;28;19983;-88
2021/07/31 10:14:30;;;;;;;;;;;;;;;23.07;59.36;100803.16;5017658;28;19996;-89
2021/07/31 10:16:56;;;;;;;;;;;;;;;24.16;58.01;100805.72;5018007;28;20441;-89
2021/07/31 10:19:21;;;;;;;;;;;;;;;24.18;56.50;100808.31;5008715;28;19917;-86
2021/07/31 10:21:49;;;;;;;;;;;;;;;24.31;56.66;100805.97;4998216;28;19921;-89
2021/07/31 10:24:15;;;;;;;;;;;;;;;24.49;56.37;100805.03;4998351;28;19927;-89
2021/07/31 10:27:01;;;;;;;;;;;;;;;23.89;57.56;100804.84;4999753;28;19999;-92
2021/07/31 10:29:28;;;;;;;;;;;;;;;25.14;53.73;100807.22;4998133;28;19917;-90
2021/07/31 10:31:56;;;;;;;;;;;;;;;24.53;56.24;100800.91;4999303;28;19972;-88
2021/07/31 10:34:43;;;;;;;;;;;;;;;24.82;53.04;100810.75;4999037;28;20018;-90
2021/07/31 10:37:39;;;;;;;;;;;;;;;25.31;52.86;100805.38;5013889;28;20374;-90
2021/07/31 10:40:08;;;;;;;;;;;;;;;25.18;53.13;100810.50;4999019;28;19921;-88
2021/07/31 10:42:52;;;;;;;;;;;;;;;24.93;53.96;100821.53;4998200;28;19926;-92
2021/07/31 10:45:22;;;;;;;;;;;;;;;24.31;54.48;100819.81;4997412;28;19991;-90
2021/07/31 10:47:47;;;;;;;;;;;;;;;24.57;52.44;100818.91;4998746;28;19924;-89
2021/07/31 10:50:22;;;;;;;;;;;;;;;24.97;53.35;100817.38;4998964;28;19943;-89
2021/07/31 10:53:02;;;;;;;;;;;;;;;25.53;51.35;100822.34;4998475;28;19917;-90
2021/07/31 10:55:37;;;;;;;;;;;;;;;25.72;50.82;100823.94;5015684;28;19917;-89
2021/07/31 10:58:06;;;;;;;;;;;;;;;24.93;52.19;100830.69;4998846;28;19967;-91
2021/07/31 11:00:38;;;;;;;;;;;;;;;24.87;51.53;100838.78;4998481;28;19917;-91
2021/07/31 11:03:04;;;;;;;;;;;;;;;24.57;52.46;100832.75;4998481;28;19917;-88
2021/07/31 11:05:51;;;;;;;;;;;;;;;25.20;51.85;100836.09;4998350;28;20012;-90
2021/07/31 11:08:16;;;;;;;;;;;;;;;24.88;51.28;100844.16;4998713;28;19918;-91
2021/07/31 11:10:43;;;;;;;;;;;;;;;24.93;51.35;100846.44;4998108;28;20009;-91
2021/07/31 11:13:34;;;;;;;;;;;;;;;25.07;50.06;100843.00;4997527;28;20036;-92
2021/07/31 11:16:03;;;;;;;;;;;;;;;25.09;50.47;100851.13;4982299;28;19925;-91
2021/07/31 11:18:42;;;;;;;;;;;;;;;24.53;50.44;100850.69;4997084;28;19917;-90
2021/07/31 11:21:21;;;;;;;;;;;;;;;24.53;50.47;100854.34;4996956;28;19918;-90
2021/07/31 11:24:00;;;;;;;;;;;;;;;24.98;48.71;100860.63;4997349;28;19921;-89
2021/07/31 11:26:37;;;;;;;;;;;;;;;24.43;50.21;100861.88;4997883;28;19957;-91
2021/07/31 11:29:15;;;;;;;;;;;;;;;25.18;49.08;100863.09;4997795;28;19922;-91
2021/07/31 11:31:59;;;;;;;;;;;;;;;24.81;48.92;100865.22;4999033;28;20012;-92
2021/07/31 11:34:24;;;;;;;;;;;;;;;25.28;48.70;100866.59;5001462;28;19925;-91
2021/07/31 11:37:02;;;;;;;;;;;;;;;25.89;46.01;100864.47;5001228;28;19918;-91
2021/07/31 11:39:30;;;;;;;;;;;;;;;24.67;47.12;100869.47;5001211;28;19917;-91
2021/07/31 11:41:59;;;;;;;;;;;;;;;25.50;47.59;100873.44;5001685;28;19926;-91
2021/07/31 11:44:38;;;;;;;;;;;;;;;25.40;46.49;100875.50;5001029;28;19925;-90
2021/07/31 11:47:57;;;;;;;;;;;;;;;26.01;46.12;100873.31;5000835;28;19917;-91
2021/07/31 11:50:26;;;;;;;;;;;;;;;25.63;45.88;100871.00;4974299;28;20288;-91
2021/07/31 11:52:52;;;;;;;;;;;;;;;25.31;47.39;100880.13;5008870;23;20309;-90
2021/07/31 11:55:24;;;;;;;;;;;;;;;25.51;47.27;100875.16;5012614;28;19917;-92
2021/07/31 11:57:50;;;;;;;;;;;;;;;25.19;48.17;100884.22;5018455;28;19918;-91
2021/07/31 12:00:16;;;;;;;;;;;;;;;25.01;49.68;100885.19;5012480;28;20290;-93
2021/07/31 12:02:41;;;;;;;;;;;;;;;24.62;53.07;100896.75;5017542;28;19913;-92
2021/07/31 12:05:07;;;;;;;;;;;;;;;24.67;54.93;100886.09;5010482;28;19936;-91
2021/07/31 12:07:32;;;;;;;;;;;;;;;24.13;55.61;100891.72;5016934;28;19913;-92
2021/07/31 12:10:00;;;;;;;;;;;;;;;24.30;55.74;100901.00;5018631;28;19917;-91
2021/07/31 12:12:27;;;;;;;;;;;;;;;24.83;55.13;100901.88;5018606;28;20297;-92
2021/07/31 12:15:11;;;;;;;;;;;;;;;24.64;54.88;100903.00;5017473;28;20020;-88
2021/07/31 12:17:42;;;;;;;;;;;;;;;24.95;55.42;100900.56;5016881;28;19918;-91
2021/07/31 12:20:08;;;;;;;;;;;;;;;24.36;55.21;100910.56;5009966;28;19917;-89
2021/07/31 12:22:34;;;;;;;;;;;;;;;24.30;55.76;100909.31;5016176;28;20008;-90
2021/07/31 12:25:10;;;;;;;;;;;;;;;24.58;55.44;100920.25;5008643;28;19925;-92
2021/07/31 12:27:48;;;;;;;;;;;;;;;23.82;56.25;100913.34;5017625;28;19917;-88
2021/07/31 12:30:26;;;;;;;;;;;;;;;24.04;56.81;100926.72;5010630;28;19948;-89
2021/07/31 12:32:52;;;;;;;;;;;;;;;24.73;54.70;100929.69;5017135;28;20000;-90
2021/07/31 12:35:37;;;;;;;;;;;;;;;23.96;55.47;100931.31;5012202;28;19918;-90
2021/07/31 12:38:04;;;;;;;;;;;;;;;23.50;56.90;100934.94;5017068;28;19972;-90